Time;durP1;ratioP1;P1;durP2;ratioP2;P2;SDS_P1;SDS_P2;PMS_P1;PMS_P2;Temp;Humidity;BMP_temperature;BMP_pressure;BME280_temperature;BME280_humidity;BME280_pressure;Samples;Min_cycle;Max_cycle;Signal;HPM_P1;HPM_P2
2023/07/02 00:02:20;;;;;;;9.63;5.60;;;16.70;99.90;;;;;;4912301;29;20158;-77
2023/07/02 00:05:06;;;;;;;9.65;5.78;;;16.70;99.90;;;;;;4903018;29;20139;-77
2023/07/02 00:07:52;;;;;;;7.95;5.10;;;16.70;99.90;;;;;;4905956;29;20079;-77
2023/07/02 00:10:38;;;;;;;9.65;5.38;;;16.80;99.90;;;;;;4900408;29;20047;-77
2023/07/02 00:13:25;;;;;;;8.75;5.50;;;16.70;99.90;;;;;;4894981;29;20118;-77
2023/07/02 00:16:11;;;;;;;8.18;6.00;;;16.80;99.90;;;;;;4924067;29;20050;-77
2023/07/02 00:18:59;;;;;;;6.97;5.10;;;16.70;99.90;;;;;;4906004;29;20047;-77
2023/07/02 00:21:45;;;;;;;6.30;5.07;;;16.70;99.90;;;;;;4926694;29;20377;-76
2023/07/02 00:24:31;;;;;;;7.78;4.85;;;16.70;99.90;;;;;;4932192;29;20570;-77
2023/07/02 00:27:17;;;;;;;9.02;5.10;;;16.60;99.90;;;;;;4897114;29;20047;-76
2023/07/02 00:30:04;;;;;;;7.32;5.03;;;16.60;99.90;;;;;;4922843;29;20481;-78
2023/07/02 00:32:50;;;;;;;9.60;4.82;;;16.60;99.90;;;;;;4927858;29;20032;-77
2023/07/02 00:35:37;;;;;;;7.57;4.85;;;16.60;99.90;;;;;;4892845;29;20040;-80
2023/07/02 00:38:23;;;;;;;6.88;4.68;;;16.50;99.90;;;;;;4903495;29;20115;-76
2023/07/02 00:41:09;;;;;;;9.50;5.22;;;16.40;99.90;;;;;;4910049;29;20061;-77
2023/07/02 00:43:55;;;;;;;6.53;5.05;;;16.40;99.90;;;;;;4919453;29;20159;-77
2023/07/02 00:46:41;;;;;;;11.05;5.18;;;16.40;99.90;;;;;;4923701;29;20740;-78
2023/07/02 00:49:27;;;;;;;12.55;4.93;;;16.40;99.90;;;;;;4902633;29;20052;-78
2023/07/02 00:52:13;;;;;;;6.30;4.85;;;16.40;99.90;;;;;;4891093;29;20048;-77
2023/07/02 00:54:59;;;;;;;7.35;4.43;;;16.30;99.90;;;;;;4900314;29;20072;-77
2023/07/02 00:57:46;;;;;;;6.95;5.32;;;16.30;99.90;;;;;;4897474;29;20048;-78
2023/07/02 01:00:32;;;;;;;9.05;5.13;;;16.30;99.90;;;;;;4904885;29;20793;-75
2023/07/02 01:03:18;;;;;;;8.25;4.13;;;16.30;99.90;;;;;;4914379;29;20123;-75
2023/07/02 01:06:04;;;;;;;9.25;4.05;;;16.20;99.90;;;;;;4895315;29;20044;-76
2023/07/02 01:08:53;;;;;;;7.30;4.32;;;16.20;99.90;;;;;;4919377;29;20044;-76
2023/07/02 01:11:50;;;;;;;11.70;3.85;;;16.20;99.90;;;;;;4906899;29;20123;-74
2023/07/02 01:14:37;;;;;;;9.27;3.90;;;16.20;99.90;;;;;;4905688;29;20088;-75
2023/07/02 01:17:23;;;;;;;6.03;3.27;;;16.20;99.90;;;;;;4904671;29;20048;-75
2023/07/02 01:20:10;;;;;;;6.68;3.72;;;16.20;99.90;;;;;;4919619;29;20272;-77
2023/07/02 01:22:56;;;;;;;7.78;3.42;;;16.20;99.90;;;;;;4906482;29;20851;-78
2023/07/02 01:25:45;;;;;;;9.75;3.42;;;16.20;99.90;;;;;;4905604;29;20044;-77
2023/07/02 01:28:38;;;;;;;5.45;3.25;;;16.20;99.90;;;;;;4918274;29;20697;-76
2023/07/02 01:31:25;;;;;;;6.43;3.00;;;16.20;99.90;;;;;;4906050;29;20040;-77
2023/07/02 01:34:11;;;;;;;4.45;2.50;;;16.20;99.90;;;;;;4920431;29;20470;-77
2023/07/02 01:36:58;;;;;;;7.13;3.40;;;16.20;99.90;;;;;;4912870;29;20553;-77
2023/07/02 01:39:44;;;;;;;7.30;3.10;;;16.20;99.90;;;;;;4902447;29;20052;-77
2023/07/02 01:42:30;;;;;;;9.00;3.55;;;16.20;99.90;;;;;;4915683;29;20040;-77
2023/07/02 01:45:16;;;;;;;6.95;2.92;;;16.30;99.90;;;;;;4903396;29;20178;-75
2023/07/02 01:48:02;;;;;;;3.97;2.33;;;16.50;99.90;;;;;;4903930;29;20055;-74
2023/07/02 01:50:48;;;;;;;4.97;2.58;;;16.60;99.90;;;;;;4904392;29;20054;-75
2023/07/02 01:53:34;;;;;;;5.72;2.65;;;16.50;99.90;;;;;;4898812;29;20046;-75
2023/07/02 01:56:21;;;;;;;5.28;2.50;;;16.40;99.90;;;;;;4900745;29;20051;-76
2023/07/02 01:59:08;;;;;;;5.70;2.50;;;16.30;99.90;;;;;;4916168;29;20128;-74
2023/07/02 02:01:54;;;;;;;7.28;2.95;;;16.20;99.90;;;;;;4899442;29;20082;-75
2023/07/02 02:04:42;;;;;;;6.30;2.50;;;16.20;99.90;;;;;;4915201;29;20058;-77
2023/07/02 02:07:28;;;;;;;7.90;2.40;;;16.30;99.90;;;;;;4915057;29;20450;-77
2023/07/02 02:10:14;;;;;;;3.88;2.50;;;16.20;99.90;;;;;;4904649;29;20108;-77
2023/07/02 02:13:00;;;;;;;5.63;2.63;;;16.20;99.90;;;;;;4916636;29;20047;-77
2023/07/02 02:15:46;;;;;;;6.90;2.75;;;16.10;99.90;;;;;;4900348;29;20048;-76
2023/07/02 02:18:32;;;;;;;4.75;2.58;;;16.20;99.90;;;;;;4900861;29;20040;-77
2023/07/02 02:21:22;;;;;;;6.65;2.65;;;16.10;99.90;;;;;;4900119;29;20051;-77
2023/07/02 02:24:08;;;;;;;7.88;2.40;;;16.10;99.90;;;;;;4904081;29;20040;-78
2023/07/02 02:26:54;;;;;;;9.05;2.83;;;16.10;99.90;;;;;;4899853;29;20052;-77
2023/07/02 02:29:41;;;;;;;5.82;2.95;;;16.00;99.90;;;;;;4900841;29;20798;-77
2023/07/02 02:32:27;;;;;;;4.88;2.80;;;16.00;99.90;;;;;;4914849;29;20044;-77
2023/07/02 02:35:14;;;;;;;5.25;2.80;;;16.00;99.90;;;;;;4900516;29;20131;-77
2023/07/02 02:38:02;;;;;;;7.10;3.10;;;16.00;99.90;;;;;;4896278;29;20039;-78
2023/07/02 02:40:48;;;;;;;9.10;3.17;;;15.90;99.90;;;;;;4888822;29;20889;-77
2023/07/02 02:43:35;;;;;;;5.40;2.75;;;15.90;99.90;;;;;;4908159;29;20040;-79
2023/07/02 02:46:21;;;;;;;5.22;2.90;;;15.90;99.90;;;;;;4916821;29;20784;-78
2023/07/02 02:49:07;;;;;;;7.18;3.00;;;15.90;99.90;;;;;;4903066;29;20072;-77
2023/07/02 02:51:53;;;;;;;5.63;2.80;;;15.90;99.90;;;;;;4898494;29;20051;-77
2023/07/02 02:54:39;;;;;;;8.35;3.28;;;15.80;99.90;;;;;;4914558;29;20044;-77
2023/07/02 02:57:25;;;;;;;9.60;3.13;;;15.80;99.90;;;;;;4916211;29;20039;-77
2023/07/02 03:00:12;;;;;;;5.45;3.08;;;15.80;99.90;;;;;;4903082;29;20040;-77
2023/07/02 03:02:58;;;;;;;8.55;2.83;;;15.80;99.90;;;;;;4915091;29;20458;-78
2023/07/02 03:05:47;;;;;;;6.85;3.17;;;15.80;99.90;;;;;;4910440;29;20044;-78
2023/07/02 03:08:33;;;;;;;8.93;3.45;;;15.80;99.90;;;;;;4902663;29;20130;-78
2023/07/02 03:11:19;;;;;;;9.15;3.28;;;15.80;99.90;;;;;;4914856;29;20046;-78
2023/07/02 03:14:05;;;;;;;8.32;3.30;;;15.80;99.90;;;;;;4906584;29;20048;-78
2023/07/02 03:16:51;;;;;;;4.50;3.05;;;15.80;99.90;;;;;;4920654;29;20492;-78
2023/07/02 03:19:38;;;;;;;7.72;2.97;;;15.80;99.90;;;;;;4914303;29;20084;-78
2023/07/02 03:22:23;;;;;;;5.53;3.13;;;15.80;99.90;;;;;;4911680;29;20041;-78
2023/07/02 03:25:09;;;;;;;6.10;3.40;;;15.90;99.90;;;;;;4916821;29;20044;-78
2023/07/02 03:27:55;;;;;;;6.45;3.80;;;15.90;99.90;;;;;;4905771;29;20079;-78
2023/07/02 03:30:41;;;;;;;4.93;3.55;;;15.90;99.90;;;;;;4913142;29;20050;-78
2023/07/02 03:33:27;;;;;;;7.43;4.20;;;15.90;99.90;;;;;;4917849;29;20052;-78
2023/07/02 03:36:13;;;;;;;9.32;3.80;;;15.80;99.90;;;;;;4911433;29;20771;-78
2023/07/02 03:38:59;;;;;;;8.30;3.90;;;15.90;99.90;;;;;;4913343;29;20044;-77
2023/07/02 03:41:47;;;;;;;7.65;4.10;;;15.90;99.90;;;;;;4918633;29;20048;-77
2023/07/02 03:44:33;;;;;;;6.85;3.83;;;15.90;99.90;;;;;;4920494;29;20040;-77
2023/07/02 03:47:19;;;;;;;9.45;4.35;;;15.90;99.90;;;;;;4919725;29;20101;-77
2023/07/02 03:50:05;;;;;;;8.65;4.30;;;15.90;99.90;;;;;;4920823;29;20044;-78
2023/07/02 03:52:51;;;;;;;6.90;4.05;;;15.90;99.90;;;;;;4921459;29;20045;-77
2023/07/02 03:55:39;;;;;;;6.72;3.97;;;16.00;99.90;;;;;;4920207;29;20135;-78
2023/07/02 03:58:25;;;;;;;6.73;3.90;;;16.00;99.90;;;;;;4915413;29;20048;-78
2023/07/02 04:01:11;;;;;;;10.00;4.38;;;16.00;99.90;;;;;;4918705;29;20276;-77
2023/07/02 04:03:58;;;;;;;10.07;4.30;;;16.00;99.90;;;;;;4917628;29;20054;-77
2023/07/02 04:06:44;;;;;;;8.90;4.07;;;16.10;99.90;;;;;;4919057;29;20048;-77
2023/07/02 04:09:32;;;;;;;6.25;4.20;;;16.10;99.90;;;;;;4919317;29;20032;-78
2023/07/02 04:12:18;;;;;;;7.50;4.07;;;16.00;99.90;;;;;;4907500;29;20104;-78
2023/07/02 04:15:07;;;;;;;9.60;4.65;;;16.00;99.90;;;;;;4905597;29;20036;-79
2023/07/02 04:17:53;;;;;;;8.52;4.78;;;16.00;99.90;;;;;;4911338;29;20118;-79
2023/07/02 04:20:40;;;;;;;8.57;4.10;;;16.10;99.90;;;;;;4900503;29;20506;-78
2023/07/02 04:23:26;;;;;;;9.50;4.28;;;16.10;99.90;;;;;;4891019;29;20112;-78
2023/07/02 04:26:12;;;;;;;7.60;4.70;;;16.10;99.90;;;;;;4918974;29;20130;-78
2023/07/02 04:28:58;;;;;;;7.78;4.28;;;16.10;99.90;;;;;;4902181;29;20124;-78
2023/07/02 04:31:44;;;;;;;7.25;4.55;;;16.10;99.90;;;;;;4907166;29;20411;-78
2023/07/02 04:34:30;;;;;;;11.50;4.47;;;16.20;99.90;;;;;;4906787;29;20040;-78
2023/07/02 04:37:16;;;;;;;7.65;4.32;;;16.20;99.90;;;;;;4925170;29;20039;-78
2023/07/02 04:40:12;;;;;;;7.30;4.50;;;16.20;99.90;;;;;;4893745;29;20043;-78
2023/07/02 04:42:58;;;;;;;8.00;4.10;;;16.20;99.90;;;;;;4906741;29;20510;-78
2023/07/02 04:45:44;;;;;;;9.55;4.90;;;16.10;99.90;;;;;;4921679;29;20056;-78
2023/07/02 04:48:30;;;;;;;11.02;4.35;;;16.20;99.90;;;;;;4898528;29;20047;-78
2023/07/02 04:51:16;;;;;;;9.23;4.47;;;16.20;99.90;;;;;;4902082;29;20492;-78
2023/07/02 04:54:02;;;;;;;6.45;4.78;;;16.20;99.90;;;;;;4909278;29;20090;-79
2023/07/02 04:56:48;;;;;;;9.05;4.47;;;16.20;99.90;;;;;;4918445;29;20382;-79
2023/07/02 04:59:34;;;;;;;7.20;5.05;;;16.20;99.90;;;;;;4902660;29;20044;-79
2023/07/02 05:02:20;;;;;;;8.15;5.03;;;16.30;99.90;;;;;;4918206;29;20051;-79
2023/07/02 05:05:06;;;;;;;6.93;5.68;;;16.30;99.90;;;;;;4900699;29;20096;-79
2023/07/02 05:07:54;;;;;;;6.88;5.28;;;16.20;99.90;;;;;;4904583;29;20048;-79
2023/07/02 05:10:40;;;;;;;10.80;5.30;;;16.20;99.90;;;;;;4917797;29;20076;-78
2023/07/02 05:13:26;;;;;;;6.00;4.97;;;16.30;99.90;;;;;;4926952;29;20127;-78
2023/07/02 05:16:12;;;;;;;7.80;5.50;;;16.30;99.90;;;;;;4901984;29;20446;-78
2023/07/02 05:18:58;;;;;;;7.45;5.68;;;16.40;99.90;;;;;;4912631;29;20075;-78
2023/07/02 05:21:44;;;;;;;8.25;5.95;;;16.20;99.90;;;;;;4906817;29;20071;-78
2023/07/02 05:24:29;;;;;;;9.90;7.03;;;16.20;99.90;;;;;;4903857;29;20502;-79
2023/07/02 05:27:15;;;;;;;8.60;7.55;;;16.10;99.90;;;;;;4920082;29;20032;-79
2023/07/02 05:30:02;;;;;;;15.25;7.72;;;16.00;99.90;;;;;;4918024;29;20051;-79
2023/07/02 05:32:49;;;;;;;12.98;7.38;;;15.90;99.90;;;;;;4912932;29;20040;-79
2023/07/02 05:35:35;;;;;;;12.50;7.28;;;15.80;99.90;;;;;;4923307;29;20110;-79
2023/07/02 05:38:23;;;;;;;14.35;6.45;;;15.50;99.90;;;;;;4929338;29;20047;-79
2023/07/02 05:41:09;;;;;;;14.50;6.88;;;15.20;99.90;;;;;;4907704;29;20040;-79
2023/07/02 05:43:55;;;;;;;14.52;7.05;;;15.10;99.90;;;;;;4908769;29;20044;-79
2023/07/02 05:46:41;;;;;;;11.50;6.93;;;15.20;99.90;;;;;;4906076;29;20127;-79
2023/07/02 05:49:27;;;;;;;14.18;6.80;;;15.10;99.90;;;;;;4905675;29;20094;-79
2023/07/02 05:52:13;;;;;;;12.98;6.18;;;15.00;99.90;;;;;;4917801;29;20048;-79
2023/07/02 05:55:00;;;;;;;15.20;7.13;;;14.90;99.90;;;;;;4920190;29;20039;-79
2023/07/02 05:57:48;;;;;;;13.68;6.68;;;15.00;99.90;;;;;;4908785;29;20060;-79
2023/07/02 06:00:35;;;;;;;16.25;6.75;;;15.00;99.90;;;;;;4904407;29;20044;-80
2023/07/02 06:03:21;;;;;;;13.93;6.60;;;15.00;99.90;;;;;;4901292;29;20050;-78
2023/07/02 06:06:08;;;;;;;12.50;6.97;;;15.10;99.90;;;;;;4903718;29;20115;-78
2023/07/02 06:08:54;;;;;;;14.35;7.13;;;15.20;99.90;;;;;;4917250;29;20425;-78
2023/07/02 06:11:42;;;;;;;18.80;7.22;;;15.10;99.90;;;;;;4887191;29;20040;-78
2023/07/02 06:14:28;;;;;;;;;;;15.10;99.90;;;;;;4904752;29;20032;-78
2023/07/02 06:17:15;;;;;;;14.77;7.75;;;15.10;99.90;;;;;;4930796;29;19915;-78
2023/07/02 06:20:04;;;;;;;17.15;8.57;;;15.00;99.90;;;;;;4911950;29;20107;-78
2023/07/02 06:22:50;;;;;;;16.17;7.78;;;15.10;99.90;;;;;;4891647;29;20140;-78
2023/07/02 06:25:36;;;;;;;16.92;8.38;;;15.00;99.90;;;;;;4914156;29;20075;-77
2023/07/02 06:28:22;;;;;;;14.25;7.40;;;15.10;99.90;;;;;;4917114;29;20086;-78
2023/07/02 06:31:08;;;;;;;19.67;8.13;;;15.00;99.90;;;;;;4904173;29;20043;-78
2023/07/02 06:33:54;;;;;;;17.98;8.02;;;15.10;99.90;;;;;;4903303;29;20516;-79
2023/07/02 06:36:41;;;;;;;16.95;8.43;;;15.10;99.90;;;;;;4902109;29;20055;-78
2023/07/02 06:39:27;;;;;;;16.10;7.85;;;15.20;99.90;;;;;;4914879;29;20370;-78
2023/07/02 06:42:13;;;;;;;15.55;8.00;;;15.10;99.90;;;;;;4915838;29;20111;-78
2023/07/02 06:44:59;;;;;;;16.98;7.93;;;15.20;99.90;;;;;;4912359;29;20047;-78
2023/07/02 06:47:45;;;;;;;19.02;8.13;;;15.10;99.90;;;;;;4916805;29;20497;-78
2023/07/02 06:50:31;;;;;;;18.15;7.65;;;15.10;99.90;;;;;;4899913;29;20046;-78
2023/07/02 06:53:16;;;;;;;18.50;8.15;;;15.20;99.90;;;;;;4902092;29;20044;-77
2023/07/02 06:56:03;;;;;;;25.83;8.18;;;15.20;99.90;;;;;;4898277;29;20048;-78
2023/07/02 06:58:50;;;;;;;18.23;7.82;;;15.20;99.90;;;;;;4902327;29;20469;-78
2023/07/02 07:01:36;;;;;;;19.97;7.63;;;15.30;99.90;;;;;;4901743;29;20040;-78
2023/07/02 07:04:22;;;;;;;18.33;8.23;;;15.40;99.90;;;;;;4902643;29;20075;-78
2023/07/02 07:07:08;;;;;;;19.80;7.65;;;15.40;99.90;;;;;;4915701;29;20051;-78
2023/07/02 07:09:54;;;;;;;20.58;8.10;;;15.50;99.90;;;;;;4896294;29;20076;-78
2023/07/02 07:12:40;;;;;;;19.13;7.88;;;15.50;99.90;;;;;;4915547;29;20046;-78
2023/07/02 07:15:26;;;;;;;22.88;8.13;;;15.60;99.90;;;;;;4902868;29;20134;-78
2023/07/02 07:18:12;;;;;;;23.63;8.68;;;15.70;99.90;;;;;;4910786;29;20039;-78
2023/07/02 07:20:58;;;;;;;15.95;7.38;;;15.80;99.90;;;;;;4924837;29;20048;-78
2023/07/02 07:23:44;;;;;;;18.15;7.25;;;15.90;99.90;;;;;;4918055;29;20516;-78
2023/07/02 07:26:30;;;;;;;19.88;8.05;;;16.00;99.90;;;;;;4901692;29;20115;-78
2023/07/02 07:29:18;;;;;;;23.77;7.97;;;16.10;99.90;;;;;;4919361;29;20385;-78
2023/07/02 07:32:04;;;;;;;23.55;7.32;;;16.20;99.90;;;;;;4905718;29;20076;-78
2023/07/02 07:34:50;;;;;;;21.65;7.90;;;16.30;99.90;;;;;;4901898;29;20144;-78
2023/07/02 07:37:36;;;;;;;23.85;7.72;;;16.30;99.90;;;;;;4910066;29;20043;-78
2023/07/02 07:40:22;;;;;;;20.00;7.43;;;16.30;99.90;;;;;;4912123;29;20044;-78
2023/07/02 07:43:08;;;;;;;22.48;7.78;;;16.50;99.90;;;;;;4921367;29;20130;-78
2023/07/02 07:45:54;;;;;;;21.15;7.18;;;16.70;99.90;;;;;;4919688;29;20051;-76
2023/07/02 07:48:40;;;;;;;22.63;7.90;;;16.70;99.90;;;;;;4900154;29;20082;-78
2023/07/02 07:51:27;;;;;;;22.33;7.57;;;16.80;99.90;;;;;;4903056;29;20073;-79
2023/07/02 07:54:13;;;;;;;18.88;7.88;;;16.90;99.90;;;;;;4907174;29;20052;-79
2023/07/02 07:57:02;;;;;;;27.15;8.02;;;16.90;99.90;;;;;;4906296;29;20441;-78
2023/07/02 07:59:48;;;;;;;18.88;7.25;;;17.00;99.90;;;;;;4924084;29;20079;-79
2023/07/02 08:02:34;;;;;;;21.40;8.02;;;17.20;99.90;;;;;;4920719;29;20054;-76
2023/07/02 08:05:20;;;;;;;15.95;7.50;;;17.20;99.90;;;;;;4908393;29;20055;-76
2023/07/02 08:08:08;;;;;;;16.10;6.75;;;17.30;99.90;;;;;;4903762;29;20040;-76
2023/07/02 08:10:54;;;;;;;16.83;6.93;;;17.20;99.90;;;;;;4919753;29;20051;-75
2023/07/02 08:13:40;;;;;;;18.45;7.28;;;17.30;99.90;;;;;;4903780;29;20075;-76
2023/07/02 08:16:26;;;;;;;22.77;6.75;;;17.30;99.90;;;;;;4919190;29;20036;-78
2023/07/02 08:19:12;;;;;;;18.02;6.75;;;17.30;99.90;;;;;;4910000;29;20090;-78
2023/07/02 08:21:58;;;;;;;15.07;6.68;;;17.40;99.90;;;;;;4920362;29;20043;-78
2023/07/02 08:24:44;;;;;;;14.68;7.13;;;17.30;99.90;;;;;;4917171;29;20868;-79
2023/07/02 08:27:30;;;;;;;14.20;6.47;;;17.30;99.90;;;;;;4901803;29;20040;-79
2023/07/02 08:30:17;;;;;;;16.70;7.00;;;17.30;99.90;;;;;;4891233;29;20033;-78
2023/07/02 08:33:03;;;;;;;14.77;6.33;;;17.40;99.90;;;;;;4917966;29;20036;-76
2023/07/02 08:35:49;;;;;;;22.08;6.53;;;17.40;99.90;;;;;;4905921;29;20053;-76
2023/07/02 08:38:35;;;;;;;18.35;6.82;;;17.40;99.90;;;;;;4903405;29;20039;-78
2023/07/02 08:41:23;;;;;;;20.33;6.50;;;17.50;99.90;;;;;;4911605;29;20051;-76
2023/07/02 08:44:09;;;;;;;18.33;6.90;;;17.60;99.90;;;;;;4918014;29;20390;-79
2023/07/02 08:46:56;;;;;;;18.00;7.13;;;17.70;99.90;;;;;;4906571;29;20052;-79
2023/07/02 08:49:43;;;;;;;22.60;7.95;;;17.60;99.80;;;;;;4902174;29;20047;-77
2023/07/02 08:52:29;;;;;;;17.45;7.53;;;17.70;98.40;;;;;;4916074;29;20052;-78
2023/07/02 08:55:15;;;;;;;18.13;7.50;;;17.70;98.70;;;;;;4909567;29;20127;-77
2023/07/02 08:58:01;;;;;;;20.60;7.95;;;17.70;99.00;;;;;;4905285;29;20075;-76
2023/07/02 09:01:07;;;;;;;17.35;7.57;;;17.90;99.10;;;;;;4904203;29;20040;-77
2023/07/02 09:03:58;;;;;;;17.23;7.13;;;18.00;98.80;;;;;;4910515;29;20051;-77
2023/07/02 09:06:50;;;;;;;19.00;8.25;;;18.00;98.60;;;;;;4911845;29;20053;-78
2023/07/02 09:09:49;;;;;;;17.60;7.30;;;18.10;98.10;;;;;;4886188;29;20151;-76
2023/07/02 09:12:36;;;;;;;16.10;7.07;;;18.00;96.60;;;;;;4900908;29;20045;-78
2023/07/02 09:15:22;;;;;;;19.75;7.10;;;18.00;96.40;;;;;;4898857;29;20045;-76
2023/07/02 09:18:18;;;;;;;16.58;8.07;;;18.00;95.60;;;;;;4898498;29;20048;-79
2023/07/02 09:21:04;;;;;;;17.85;7.38;;;18.20;94.20;;;;;;4902611;29;20040;-78
2023/07/02 09:23:50;;;;;;;19.58;7.40;;;18.20;94.90;;;;;;4897844;29;20052;-78
2023/07/02 09:26:36;;;;;;;29.05;7.82;;;18.30;94.60;;;;;;4894658;29;20045;-78
2023/07/02 09:29:33;;;;;;;21.38;8.27;;;18.30;93.50;;;;;;4896289;29;20545;-76
2023/07/02 09:32:26;;;;;;;18.73;7.63;;;18.30;94.60;;;;;;4896777;29;20052;-79
2023/07/02 09:35:13;;;;;;;15.63;7.32;;;18.20;93.60;;;;;;4900100;29;20045;-78
2023/07/02 09:37:59;;;;;;;17.73;6.85;;;18.20;93.60;;;;;;4886132;29;20049;-78
2023/07/02 09:40:49;;;;;;;17.42;7.18;;;18.20;93.70;;;;;;4894798;29;20049;-78
2023/07/02 09:43:36;;;;;;;17.45;7.45;;;18.20;93.60;;;;;;4899177;29;20374;-79
2023/07/02 09:46:22;;;;;;;17.47;7.20;;;18.10;92.80;;;;;;4894362;29;20063;-78
2023/07/02 09:49:10;;;;;;;23.05;7.80;;;18.20;94.30;;;;;;4899911;29;20144;-78
2023/07/02 09:51:56;;;;;;;21.50;7.80;;;18.40;94.80;;;;;;4911208;29;20127;-75
2023/07/02 09:54:42;;;;;;;18.20;6.90;;;18.50;94.60;;;;;;4896798;29;20044;-76
2023/07/02 09:57:31;;;;;;;14.75;6.85;;;18.60;94.70;;;;;;4896521;29;20422;-75
2023/07/02 10:00:17;;;;;;;20.05;7.97;;;18.80;94.80;;;;;;4891806;29;20045;-76
2023/07/02 10:03:03;;;;;;;16.83;6.70;;;18.60;93.80;;;;;;4898574;29;20179;-75
2023/07/02 10:05:49;;;;;;;20.00;6.65;;;18.50;92.50;;;;;;4906407;29;20044;-76
2023/07/02 10:08:36;;;;;;;19.17;6.63;;;18.30;91.10;;;;;;4903988;29;20060;-75
2023/07/02 10:11:38;;;;;;;19.27;8.07;;;18.50;92.40;;;;;;4902080;29;20032;-76
2023/07/02 10:14:24;;;;;;;19.13;7.25;;;18.60;92.50;;;;;;4892092;29;20082;-76
2023/07/02 10:17:09;;;;;;;16.17;7.15;;;18.70;92.50;;;;;;4921140;29;20044;-76
2023/07/02 10:19:57;;;;;;;16.73;7.13;;;18.80;92.50;;;;;;4902173;29;20606;-75
2023/07/02 10:22:47;;;;;;;15.27;7.40;;;18.80;91.60;;;;;;4891195;29;20486;-75
2023/07/02 10:25:38;;;;;;;15.52;6.40;;;19.00;91.70;;;;;;4894316;29;20078;-77
2023/07/02 10:28:26;;;;;;;16.13;6.30;;;19.10;91.00;;;;;;4897939;29;20131;-76
2023/07/02 10:31:22;;;;;;;14.02;6.70;;;19.20;89.70;;;;;;4903145;29;20040;-76
2023/07/02 10:34:07;;;;;;;15.52;6.82;;;19.30;88.90;;;;;;4903414;29;20047;-75
2023/07/02 10:36:54;;;;;;;14.30;6.55;;;19.40;87.50;;;;;;4905400;29;20330;-76
2023/07/02 10:39:40;;;;;;;13.57;6.30;;;19.60;83.90;;;;;;4917240;29;20080;-76
2023/07/02 10:42:26;;;;;;;14.52;6.45;;;19.50;86.20;;;;;;4900425;29;20052;-75
2023/07/02 10:45:13;;;;;;;15.27;6.10;;;19.80;87.00;;;;;;4905165;29;20048;-79
2023/07/02 10:48:10;;;;;;;17.95;7.32;;;19.80;83.90;;;;;;4898472;29;20131;-78
2023/07/02 10:50:57;;;;;;;14.00;6.15;;;19.50;86.20;;;;;;4898681;29;20051;-76
2023/07/02 10:53:42;;;;;;;17.15;7.55;;;19.20;83.90;;;;;;4905062;29;20075;-77
2023/07/02 10:56:29;;;;;;;20.10;7.40;;;19.10;84.90;;;;;;4890314;29;20470;-76
2023/07/02 10:59:25;;;;;;;18.52;6.88;;;19.20;84.30;;;;;;4889722;29;20052;-76
2023/07/02 11:02:11;;;;;;;13.48;6.35;;;19.40;86.80;;;;;;4903119;29;20032;-76
2023/07/02 11:04:56;;;;;;;11.35;6.40;;;19.80;83.70;;;;;;4890033;29;20138;-76
2023/07/02 11:07:43;;;;;;;13.65;6.25;;;19.60;82.90;;;;;;4897697;29;20111;-74
2023/07/02 11:10:28;;;;;;;17.38;6.93;;;19.70;83.80;;;;;;4902526;29;20051;-75
2023/07/02 11:13:16;;;;;;;14.20;5.95;;;19.70;85.40;;;;;;4918344;29;20070;-75
2023/07/02 11:16:02;;;;;;;13.77;6.30;;;19.50;82.20;;;;;;4898786;29;20100;-75
2023/07/02 11:18:48;;;;;;;13.98;6.13;;;19.50;83.10;;;;;;4917602;29;20149;-79
2023/07/02 11:21:35;;;;;;;17.58;6.30;;;19.60;83.70;;;;;;4904218;29;20058;-79
2023/07/02 11:24:36;;;;;;;15.02;5.90;;;19.80;84.40;;;;;;4906004;29;20126;-79
2023/07/02 11:27:28;;;;;;;12.40;6.20;;;20.00;84.10;;;;;;4910280;29;20059;-79
2023/07/02 11:30:14;;;;;;;14.60;6.80;;;20.10;82.50;;;;;;4917631;29;20075;-79
2023/07/02 11:33:05;;;;;;;14.02;6.60;;;19.90;83.40;;;;;;4906467;29;20040;-79
2023/07/02 11:35:51;;;;;;;15.20;6.47;;;19.80;83.70;;;;;;4895683;29;20055;-77
2023/07/02 11:38:37;;;;;;;13.52;6.50;;;19.60;84.50;;;;;;4902699;29;20130;-76
2023/07/02 11:41:23;;;;;;;15.27;6.13;;;19.40;83.20;;;;;;4901598;29;20080;-76
2023/07/02 11:44:09;;;;;;;13.27;6.45;;;19.50;85.10;;;;;;4902077;29;20047;-76
2023/07/02 11:46:57;;;;;;;14.13;6.45;;;19.60;84.80;;;;;;4902788;29;20115;-77
2023/07/02 11:49:42;;;;;;;14.65;5.80;;;19.70;82.30;;;;;;4904156;29;20051;-78
2023/07/02 11:52:30;;;;;;;14.40;5.80;;;19.60;83.80;;;;;;4900547;29;20040;-77
2023/07/02 11:55:16;;;;;;;15.00;6.55;;;19.70;83.60;;;;;;4897266;29;20552;-79
2023/07/02 11:58:02;;;;;;;13.13;5.93;;;19.50;83.20;;;;;;4898355;29;20131;-78
2023/07/02 12:00:47;;;;;;;11.95;5.95;;;19.70;85.10;;;;;;4914940;29;20133;-78
2023/07/02 12:03:33;;;;;;;10.23;5.45;;;19.80;85.90;;;;;;4900493;29;20044;-79
2023/07/02 12:06:19;;;;;;;15.20;6.38;;;19.70;85.10;;;;;;4908949;29;20119;-78
2023/07/02 12:09:05;;;;;;;21.42;5.45;;;19.60;85.10;;;;;;4897143;29;20044;-78
2023/07/02 12:11:51;;;;;;;16.88;6.10;;;19.50;86.10;;;;;;4881537;29;20088;-79
2023/07/02 12:14:38;;;;;;;11.98;5.85;;;19.40;85.40;;;;;;4903898;29;20050;-79
2023/07/02 12:17:24;;;;;;;12.55;5.82;;;19.40;85.30;;;;;;4906683;29;20052;-79
2023/07/02 12:20:11;;;;;;;14.02;6.20;;;19.50;86.00;;;;;;4902810;29;20135;-79
2023/07/02 12:22:57;;;;;;;15.70;6.13;;;19.70;85.90;;;;;;4914428;29;20126;-79
2023/07/02 12:25:43;;;;;;;14.82;6.32;;;19.90;83.70;;;;;;4928163;29;20036;-79
2023/07/02 12:28:29;;;;;;;13.30;5.88;;;19.90;83.70;;;;;;4917339;29;20040;-79
2023/07/02 12:31:16;;;;;;;14.10;5.68;;;20.10;84.70;;;;;;4911931;29;20051;-79
2023/07/02 12:34:02;;;;;;;13.07;5.15;;;20.10;83.10;;;;;;4935830;28;20047;-79
2023/07/02 12:36:49;;;;;;;11.32;5.38;;;19.90;83.50;;;;;;4936392;29;20048;-79
2023/07/02 12:39:34;;;;;;;12.00;6.13;;;19.80;83.90;;;;;;4922346;29;20055;-79
2023/07/02 12:42:25;;;;;;;15.13;5.97;;;19.60;82.80;;;;;;4927404;29;20462;-79
2023/07/02 12:45:11;;;;;;;13.68;6.53;;;19.50;81.30;;;;;;4898728;29;20946;-79
2023/07/02 12:47:58;;;;;;;13.32;5.78;;;19.60;82.30;;;;;;4906118;29;20051;-80
2023/07/02 12:50:54;;;;;;;12.13;5.47;;;19.80;82.20;;;;;;4931927;28;20032;-79
2023/07/02 12:53:40;;;;;;;21.60;6.30;;;19.90;81.40;;;;;;4934104;29;20048;-80
2023/07/02 12:56:26;;;;;;;13.52;6.30;;;20.10;81.80;;;;;;4916706;29;20036;-79
2023/07/02 12:59:13;;;;;;;17.98;6.22;;;19.90;81.80;;;;;;4920071;29;20108;-79
2023/07/02 13:01:59;;;;;;;13.25;6.55;;;20.10;81.60;;;;;;4918343;29;20055;-79
2023/07/02 13:04:46;;;;;;;14.15;5.82;;;20.00;81.50;;;;;;4912303;29;20024;-79
2023/07/02 13:07:33;;;;;;;17.25;6.13;;;20.00;81.70;;;;;;4919298;29;20120;-79
2023/07/02 13:10:19;;;;;;;15.97;6.77;;;20.20;81.80;;;;;;4930229;29;20135;-79
2023/07/02 13:13:07;;;;;;;14.60;6.20;;;20.20;80.90;;;;;;4902776;29;20048;-79
2023/07/02 13:15:53;;;;;;;13.57;5.75;;;20.50;80.80;;;;;;4900000;29;20409;-78
2023/07/02 13:18:39;;;;;;;13.13;5.55;;;20.40;80.40;;;;;;4900838;29;20064;-78
2023/07/02 13:21:25;;;;;;;13.52;6.22;;;20.40;80.60;;;;;;4893334;29;20051;-79
2023/07/02 13:24:12;;;;;;;11.77;5.85;;;20.60;79.80;;;;;;4921418;29;20063;-79
2023/07/02 13:26:58;;;;;;;15.23;6.23;;;20.70;78.10;;;;;;4913048;29;20058;-79
2023/07/02 13:29:44;;;;;;;13.45;6.28;;;20.60;79.20;;;;;;4904577;29;20847;-79
2023/07/02 13:32:30;;;;;;;14.23;5.53;;;20.80;80.10;;;;;;4904028;29;20055;-79
2023/07/02 13:35:16;;;;;;;15.38;5.65;;;20.70;79.10;;;;;;4920956;29;20036;-79
2023/07/02 13:38:04;;;;;;;14.85;6.25;;;20.70;78.30;;;;;;4909033;29;20076;-79
2023/07/02 13:40:50;;;;;;;12.73;5.93;;;20.60;79.50;;;;;;4907263;29;20115;-79
2023/07/02 13:43:36;;;;;;;11.90;5.22;;;20.50;79.30;;;;;;4904142;29;20072;-79
2023/07/02 13:46:24;;;;;;;12.82;6.05;;;20.70;78.90;;;;;;4916622;29;20071;-79
2023/07/02 13:49:10;;;;;;;14.95;5.88;;;21.00;78.00;;;;;;4901461;29;20099;-79
2023/07/02 13:51:56;;;;;;;11.50;5.55;;;21.00;77.20;;;;;;4909305;29;20036;-76
2023/07/02 13:54:42;;;;;;;12.98;5.53;;;21.00;76.60;;;;;;4912928;29;20572;-77
2023/07/02 13:57:28;;;;;;;14.18;5.80;;;21.00;77.80;;;;;;4915550;29;20082;-77
2023/07/02 14:00:15;;;;;;;13.68;5.35;;;21.00;76.80;;;;;;4913325;29;20080;-78
2023/07/02 14:03:01;;;;;;;13.98;5.07;;;21.00;77.00;;;;;;4899639;29;20047;-77
2023/07/02 14:05:47;;;;;;;14.77;6.75;;;21.00;79.20;;;;;;4904604;29;20080;-78
2023/07/02 14:08:33;;;;;;;9.95;5.10;;;21.10;77.30;;;;;;4913642;29;20075;-79
2023/07/02 14:11:19;;;;;;;13.13;5.40;;;21.10;77.00;;;;;;4912192;29;20036;-77
2023/07/02 14:14:05;;;;;;;12.30;5.55;;;21.20;78.60;;;;;;4901505;29;20040;-78
2023/07/02 14:16:51;;;;;;;14.82;5.32;;;21.40;76.90;;;;;;4899606;29;20119;-77
2023/07/02 14:19:37;;;;;;;9.77;5.25;;;21.30;75.20;;;;;;4900776;29;20822;-77
2023/07/02 14:22:23;;;;;;;13.27;5.30;;;21.20;75.70;;;;;;4904483;29;20690;-77